createdAt,value
2022-10-24T00:01:17.004Z,16.80
2022-10-24T00:03:44.479Z,15.73
2022-10-24T00:06:12.933Z,17.08
2022-10-24T00:08:42.728Z,16.08
2022-10-24T00:11:13.601Z,15.38
2022-10-24T00:13:41.074Z,15.83
2022-10-24T00:16:08.716Z,15.40
2022-10-24T00:18:35.653Z,15.32
2022-10-24T00:21:02.540Z,15.18
2022-10-24T00:23:29.379Z,15.50
2022-10-24T00:25:56.681Z,15.25
2022-10-24T00:28:23.582Z,15.35
2022-10-24T00:30:53.458Z,15.33
2022-10-24T00:33:20.732Z,15.48
2022-10-24T00:35:47.551Z,15.23
2022-10-24T00:38:14.470Z,15.50
2022-10-24T00:40:42.051Z,15.05
2022-10-24T00:43:22.690Z,14.77
2022-10-24T00:45:57.736Z,15.03
2022-10-24T00:48:41.446Z,16.93
2022-10-24T00:51:16.994Z,18.43
2022-10-24T00:53:48.587Z,20.58
2022-10-24T00:56:18.829Z,20.00
2022-10-24T00:58:46.250Z,22.17
2022-10-24T01:01:13.222Z,20.27
2022-10-24T01:03:40.670Z,17.63
2022-10-24T01:06:23.699Z,17.88
2022-10-24T01:09:42.703Z,16.77
2022-10-24T01:12:54.773Z,16.23
2022-10-24T01:15:34.088Z,17.25
2022-10-24T01:18:35.366Z,18.73
2022-10-24T01:21:33.386Z,17.73
2022-10-24T01:24:29.634Z,16.38
2022-10-24T01:27:04.710Z,15.32
2022-10-24T01:29:58.760Z,17.17
2022-10-24T01:32:53.118Z,14.90
2022-10-24T01:35:40.340Z,14.98
2022-10-24T01:38:19.501Z,16.60
2022-10-24T01:41:12.256Z,15.67
2022-10-24T01:43:50.166Z,16.27
2022-10-24T01:46:23.304Z,15.25
2022-10-24T01:48:58.845Z,15.60
2022-10-24T01:51:29.332Z,15.70
2022-10-24T01:53:57.745Z,16.15
2022-10-24T01:56:26.343Z,15.27
2022-10-24T01:58:53.941Z,16.67
2022-10-24T02:01:25.454Z,15.63
2022-10-24T02:03:57.549Z,15.77
2022-10-24T02:06:36.550Z,15.50
2022-10-24T02:09:10.098Z,15.05
2022-10-24T02:11:38.327Z,15.07
2022-10-24T02:14:25.330Z,14.30
2022-10-24T02:16:52.664Z,14.43
2022-10-24T02:19:19.988Z,15.77
2022-10-24T02:22:13.557Z,15.68
2022-10-24T02:25:02.582Z,14.25
2022-10-24T02:27:40.714Z,15.67
2022-10-24T02:30:21.876Z,15.50
2022-10-24T02:32:56.702Z,15.73
2022-10-24T02:35:29.126Z,16.05
2022-10-24T02:38:14.608Z,15.90
2022-10-24T02:40:44.150Z,15.33
2022-10-24T02:43:13.458Z,15.65
2022-10-24T02:45:40.667Z,15.93
2022-10-24T02:48:12.823Z,16.35
2022-10-24T02:50:41.464Z,15.13
2022-10-24T02:53:14.051Z,15.80
2022-10-24T02:55:41.106Z,15.47
2022-10-24T02:58:08.024Z,15.27
2022-10-24T03:00:34.953Z,15.50
2022-10-24T03:03:01.892Z,14.95
2022-10-24T03:05:28.738Z,14.77
2022-10-24T03:07:55.586Z,14.43
2022-10-24T03:10:22.612Z,15.15
2022-10-24T03:12:49.467Z,14.67
2022-10-24T03:15:16.624Z,14.90
2022-10-24T03:17:44.042Z,15.60
2022-10-24T03:20:11.290Z,14.93
2022-10-24T03:22:38.215Z,13.50
2022-10-24T03:25:06.308Z,14.10
2022-10-24T03:27:34.318Z,15.53
2022-10-24T03:30:01.913Z,13.90
2022-10-24T03:32:28.794Z,14.70
2022-10-24T03:34:56.129Z,13.65
2022-10-24T03:37:23.000Z,14.40
2022-10-24T03:39:49.847Z,13.47
2022-10-24T03:42:16.694Z,14.40
2022-10-24T03:44:43.586Z,13.63
2022-10-24T03:47:10.953Z,14.33
2022-10-24T03:49:37.796Z,14.20
2022-10-24T03:52:04.932Z,14.10
2022-10-24T03:54:31.890Z,13.70
2022-10-24T03:56:58.762Z,13.93
2022-10-24T03:59:25.587Z,13.55
2022-10-24T04:01:52.525Z,13.87
2022-10-24T04:04:19.380Z,13.80
2022-10-24T04:06:46.311Z,14.27
2022-10-24T04:09:13.277Z,14.03
2022-10-24T04:11:40.138Z,13.93
2022-10-24T04:14:07.962Z,14.83
2022-10-24T04:16:35.099Z,14.07
2022-10-24T04:19:02.163Z,14.93
2022-10-24T04:21:29.488Z,14.57
2022-10-24T04:23:56.920Z,15.05
2022-10-24T04:26:24.274Z,14.33
2022-10-24T04:28:51.180Z,14.00
2022-10-24T04:31:20.971Z,14.20
2022-10-24T04:33:50.468Z,15.47
2022-10-24T04:36:17.359Z,14.70
2022-10-24T04:38:44.182Z,15.53
2022-10-24T04:41:12.206Z,14.63
2022-10-24T04:43:40.014Z,14.97
2022-10-24T04:46:07.314Z,16.50
2022-10-24T04:48:34.605Z,16.10
2022-10-24T04:51:02.785Z,15.10
2022-10-24T04:53:30.187Z,15.83
2022-10-24T04:55:57.009Z,15.50
2022-10-24T04:58:23.911Z,15.20
2022-10-24T05:00:50.773Z,16.57
2022-10-24T05:03:18.887Z,15.60
2022-10-24T05:05:46.796Z,16.57
2022-10-24T05:08:13.660Z,15.87
2022-10-24T05:10:40.722Z,18.07
2022-10-24T05:13:07.770Z,16.85
2022-10-24T05:15:36.391Z,16.77
2022-10-24T05:18:03.443Z,16.87
2022-10-24T05:20:30.863Z,16.65
2022-10-24T05:22:57.750Z,16.45
2022-10-24T05:25:24.594Z,17.23
2022-10-24T05:27:51.432Z,16.67
2022-10-24T05:30:18.354Z,16.17
2022-10-24T05:32:46.352Z,15.60
2022-10-24T05:35:13.565Z,16.87
2022-10-24T05:37:40.585Z,16.73
2022-10-24T05:40:09.132Z,15.97
2022-10-24T05:42:37.801Z,15.77
2022-10-24T05:45:10.439Z,16.80
2022-10-24T05:47:37.299Z,15.45
2022-10-24T05:50:05.635Z,16.52
2022-10-24T05:52:32.683Z,16.58
2022-10-24T05:55:08.032Z,16.00
2022-10-24T05:57:37.741Z,15.83
2022-10-24T06:00:11.559Z,15.77
2022-10-24T06:02:42.008Z,16.63
2022-10-24T06:05:10.697Z,16.35
2022-10-24T06:07:37.775Z,15.40
2022-10-24T06:10:06.874Z,16.17
2022-10-24T06:12:36.130Z,16.25
2022-10-24T06:15:06.745Z,16.60
2022-10-24T06:17:33.984Z,16.02
2022-10-24T06:20:00.995Z,16.15
2022-10-24T06:22:29.736Z,15.27
2022-10-24T06:24:56.857Z,16.17
2022-10-24T06:27:24.170Z,16.40
2022-10-24T06:29:51.116Z,15.93
2022-10-24T06:32:18.187Z,16.52
2022-10-24T06:34:45.070Z,16.77
2022-10-24T06:37:11.885Z,16.52
2022-10-24T06:39:38.751Z,16.90
2022-10-24T06:42:05.591Z,17.02
2022-10-24T06:44:32.449Z,16.98
2022-10-24T06:46:59.361Z,16.67
2022-10-24T06:49:26.300Z,17.92
2022-10-24T06:51:53.747Z,19.17
2022-10-24T06:54:20.569Z,17.05
2022-10-24T06:56:47.518Z,23.67
2022-10-24T06:59:17.676Z,34.78
2022-10-24T07:01:46.066Z,21.77
2022-10-24T07:04:13.251Z,22.00
2022-10-24T07:06:40.965Z,22.58
2022-10-24T07:09:11.492Z,21.77
2022-10-24T07:11:41.306Z,20.83
2022-10-24T07:14:09.503Z,20.93
2022-10-24T07:16:36.654Z,16.80
2022-10-24T07:19:04.912Z,17.13
2022-10-24T07:21:33.573Z,15.70
2022-10-24T07:24:01.460Z,16.83
2022-10-24T07:26:29.603Z,17.35
2022-10-24T07:29:03.949Z,17.52
2022-10-24T07:31:34.654Z,18.30
2022-10-24T07:34:04.288Z,20.50
2022-10-24T07:36:31.324Z,23.25
2022-10-24T07:38:59.503Z,24.95
2022-10-24T07:41:29.147Z,23.45
2022-10-24T07:43:58.556Z,24.20
2022-10-24T07:46:25.997Z,22.55
2022-10-24T07:48:53.976Z,22.92
2022-10-24T07:51:22.361Z,18.33
2022-10-24T07:53:50.039Z,16.85
2022-10-24T07:56:17.826Z,16.67
2022-10-24T07:58:47.853Z,16.02
2022-10-24T08:01:21.908Z,16.02
2022-10-24T08:03:49.018Z,15.63
2022-10-24T08:06:20.377Z,17.25
2022-10-24T08:08:47.506Z,16.58
2022-10-24T08:11:18.567Z,17.95
2022-10-24T08:13:45.552Z,17.83
2022-10-24T08:16:14.968Z,16.15
2022-10-24T08:18:42.518Z,15.73
2022-10-24T08:21:13.231Z,15.73
2022-10-24T08:23:44.189Z,15.60
2022-10-24T08:26:15.754Z,15.13
2022-10-24T08:28:43.845Z,15.88
2022-10-24T08:31:18.291Z,16.48
2022-10-24T08:33:45.915Z,14.55
2022-10-24T08:36:30.091Z,15.18
2022-10-24T08:38:58.025Z,14.55
2022-10-24T08:41:43.628Z,14.93
2022-10-24T08:44:27.169Z,16.35
2022-10-24T08:47:24.201Z,15.25
2022-10-24T08:50:11.836Z,15.00
2022-10-24T08:53:10.089Z,14.55
2022-10-24T08:55:51.454Z,14.57
2022-10-24T08:58:43.005Z,14.95
2022-10-24T09:01:36.096Z,14.30
2022-10-24T09:04:09.543Z,13.88
2022-10-24T09:06:37.475Z,14.15
2022-10-24T09:09:05.334Z,14.00
2022-10-24T09:12:03.150Z,13.73
2022-10-24T09:14:37.554Z,14.18
2022-10-24T09:17:12.830Z,14.82
2022-10-24T09:19:39.783Z,14.07
2022-10-24T09:22:08.069Z,14.32
2022-10-24T09:24:48.897Z,14.43
2022-10-24T09:29:54.073Z,13.68
2022-10-24T09:32:26.682Z,14.13
2022-10-24T09:34:54.370Z,14.50
2022-10-24T09:37:47.468Z,14.00
2022-10-24T09:40:21.912Z,12.77
2022-10-24T09:43:12.104Z,13.02
2022-10-24T09:46:10.866Z,12.80
2022-10-24T09:49:14.558Z,13.02
2022-10-24T09:52:05.710Z,13.60
2022-10-24T09:54:35.312Z,13.23
2022-10-24T09:57:02.043Z,13.13
2022-10-24T09:59:46.345Z,11.75
2022-10-24T10:02:28.544Z,12.93
2022-10-24T10:05:04.440Z,12.55
2022-10-24T10:07:35.641Z,12.52
2022-10-24T10:10:27.815Z,11.90
2022-10-24T10:13:15.635Z,13.40
2022-10-24T10:15:50.363Z,12.27
2022-10-24T10:18:39.810Z,12.57
2022-10-24T10:21:21.299Z,11.95
2022-10-24T10:23:55.729Z,12.00
2022-10-24T10:26:28.345Z,11.25
2022-10-24T10:29:21.690Z,12.52
2022-10-24T10:32:15.628Z,13.98
2022-10-24T10:35:15.987Z,12.77
2022-10-24T10:38:04.228Z,11.43
2022-10-24T10:40:45.166Z,11.40
2022-10-24T10:43:33.726Z,11.48
2022-10-24T10:46:29.642Z,11.27
2022-10-24T10:49:24.948Z,10.25
2022-10-24T10:51:57.877Z,10.15
2022-10-24T10:54:44.011Z,10.27
2022-10-24T10:57:20.700Z,10.07
2022-10-24T11:00:14.911Z,10.25
2022-10-24T11:02:57.428Z,8.55
2022-10-24T11:06:20.185Z,7.97
2022-10-24T11:09:24.779Z,8.45
2022-10-24T11:12:00.871Z,8.57
2022-10-24T11:14:40.863Z,8.15
2022-10-24T11:17:20.954Z,8.40
2022-10-24T11:20:05.811Z,8.38
2022-10-24T11:22:46.493Z,7.65
2022-10-24T11:25:32.103Z,7.60
2022-10-24T11:28:29.672Z,7.65
2022-10-24T11:31:17.532Z,7.80
2022-10-24T11:34:06.124Z,7.40
2022-10-24T11:37:04.851Z,7.55
2022-10-24T11:39:55.448Z,7.32
2022-10-24T11:42:34.273Z,7.47
2022-10-24T11:45:21.993Z,7.75
2022-10-24T11:48:03.119Z,7.63
2022-10-24T11:50:52.706Z,7.65
2022-10-24T11:53:43.832Z,7.85
2022-10-24T11:56:36.888Z,7.45
2022-10-24T11:59:07.468Z,7.88
2022-10-24T12:01:54.418Z,7.18
2022-10-24T12:05:03.926Z,7.55
2022-10-24T12:08:13.397Z,6.78
2022-10-24T12:11:02.926Z,6.07
2022-10-24T12:14:12.965Z,6.72
2022-10-24T12:17:32.496Z,6.25
2022-10-24T12:20:01.649Z,5.75
2022-10-24T12:22:39.560Z,12.18
2022-10-24T12:25:37.881Z,32.63
2022-10-24T12:28:14.793Z,7.78
2022-10-24T12:30:41.960Z,6.88
2022-10-24T12:33:26.481Z,6.30
2022-10-24T12:35:57.281Z,5.90
2022-10-24T12:38:27.019Z,6.95
2022-10-24T12:41:05.917Z,6.70
2022-10-24T12:43:44.328Z,6.22
2022-10-24T12:46:22.589Z,7.32
2022-10-24T12:48:59.136Z,6.35
2022-10-24T12:51:37.189Z,6.68
2022-10-24T12:54:13.165Z,5.88
2022-10-24T12:56:52.546Z,6.00
2022-10-24T12:59:31.383Z,6.28
2022-10-24T13:02:13.611Z,5.97
2022-10-24T13:04:55.858Z,6.25
2022-10-24T13:07:55.802Z,6.50
2022-10-24T13:10:47.422Z,6.07
2022-10-24T13:13:54.015Z,6.35
2022-10-24T13:16:30.740Z,6.32
2022-10-24T13:19:06.251Z,6.32
2022-10-24T13:21:57.154Z,8.60
2022-10-24T13:24:31.040Z,6.85
2022-10-24T13:26:58.130Z,6.28
2022-10-24T13:29:27.567Z,6.07
2022-10-24T13:32:04.863Z,6.90
2022-10-24T13:34:54.648Z,6.32
2022-10-24T13:37:34.608Z,5.82
2022-10-24T13:40:18.456Z,6.28
2022-10-24T13:42:52.942Z,5.93
2022-10-24T13:45:29.579Z,5.65
2022-10-24T13:48:06.386Z,5.97
2022-10-24T13:50:39.300Z,5.60
2022-10-24T13:53:31.085Z,6.15
2022-10-24T13:56:05.157Z,5.82
2022-10-24T13:58:44.243Z,6.13
2022-10-24T14:01:30.237Z,5.90
2022-10-24T14:03:59.436Z,6.35
2022-10-24T14:06:30.028Z,6.05
2022-10-24T14:09:06.966Z,5.88
2022-10-24T14:11:39.875Z,6.07
2022-10-24T14:14:26.872Z,6.70
2022-10-24T14:17:07.040Z,6.35
2022-10-24T14:19:38.056Z,6.60
2022-10-24T14:22:19.890Z,6.43
2022-10-24T14:24:48.330Z,6.10
2022-10-24T14:27:17.358Z,5.95
2022-10-24T14:30:01.517Z,6.03
2022-10-24T14:32:31.332Z,6.28
2022-10-24T14:37:36.661Z,6.30
2022-10-24T14:40:05.419Z,5.85
2022-10-24T14:42:32.980Z,6.25
2022-10-24T14:45:00.001Z,6.20
2022-10-24T14:47:35.914Z,6.20
2022-10-24T14:50:02.812Z,6.72
2022-10-24T14:52:40.060Z,6.50
2022-10-24T14:55:27.276Z,6.85
2022-10-24T14:57:54.834Z,6.75
2022-10-24T15:00:28.047Z,8.02
2022-10-24T15:02:57.896Z,7.40
2022-10-24T15:05:30.996Z,7.95
2022-10-24T15:08:21.468Z,9.18
2022-10-24T15:10:49.838Z,8.55
2022-10-24T15:13:21.952Z,10.10
2022-10-24T15:15:58.205Z,9.48
2022-10-24T15:18:33.359Z,11.88
2022-10-24T15:21:07.105Z,13.75
2022-10-24T15:23:53.394Z,13.90
2022-10-24T15:26:44.636Z,16.02
2022-10-24T15:29:14.318Z,15.63
2022-10-24T15:31:48.112Z,15.85
2022-10-24T15:34:23.774Z,15.95
2022-10-24T15:36:52.473Z,16.48
2022-10-24T15:39:24.577Z,17.00
2022-10-24T15:41:52.385Z,16.42
2022-10-24T15:44:30.142Z,18.48
2022-10-24T15:46:57.076Z,20.75
2022-10-24T15:49:23.978Z,19.13
2022-10-24T15:51:51.096Z,19.08
2022-10-24T15:54:20.733Z,24.10
2022-10-24T15:56:48.130Z,33.50
2022-10-24T15:59:15.247Z,44.10
2022-10-24T16:01:54.141Z,46.17
2022-10-24T16:04:21.676Z,57.60
2022-10-24T16:06:50.189Z,64.47
2022-10-24T16:09:23.337Z,83.50
2022-10-24T16:11:50.200Z,85.25
2022-10-24T16:14:19.921Z,86.88
2022-10-24T16:16:46.983Z,88.88
2022-10-24T16:19:14.543Z,75.82
2022-10-24T16:21:41.703Z,71.20
2022-10-24T16:24:10.603Z,65.25
2022-10-24T16:26:38.454Z,49.00
2022-10-24T16:29:05.715Z,42.08
2022-10-24T16:31:33.348Z,39.35
2022-10-24T16:34:00.356Z,36.08
2022-10-24T16:36:27.430Z,31.48
2022-10-24T16:38:54.466Z,29.60
2022-10-24T16:41:25.664Z,28.67
2022-10-24T16:43:57.132Z,27.25
2022-10-24T16:46:26.157Z,26.80
2022-10-24T16:48:53.547Z,26.58
2022-10-24T16:51:27.555Z,26.58
2022-10-24T16:53:54.388Z,26.90
2022-10-24T16:56:21.263Z,26.75
2022-10-24T16:58:48.162Z,25.90
2022-10-24T17:01:16.450Z,26.52
2022-10-24T17:03:47.144Z,26.63
2022-10-24T17:06:14.463Z,26.23
2022-10-24T17:08:41.449Z,26.48
2022-10-24T17:11:32.207Z,26.13
2022-10-24T17:13:56.615Z,26.40
2022-10-24T17:16:23.501Z,26.58
2022-10-24T17:19:05.160Z,26.20
2022-10-24T17:21:37.278Z,25.98
2022-10-24T17:24:04.530Z,26.70
2022-10-24T17:26:31.408Z,26.95
2022-10-24T17:28:58.298Z,26.70
2022-10-24T17:31:25.197Z,26.60
2022-10-24T17:33:52.248Z,24.75
2022-10-24T17:36:30.490Z,25.65
2022-10-24T17:39:14.825Z,25.45
2022-10-24T17:41:43.214Z,25.08
2022-10-24T17:44:17.353Z,24.98
2022-10-24T17:46:45.298Z,24.83
2022-10-24T17:49:17.864Z,26.30
2022-10-24T17:51:49.189Z,26.90
2022-10-24T17:54:16.886Z,25.70
2022-10-24T17:56:44.120Z,25.60
2022-10-24T17:59:10.981Z,25.48
2022-10-24T18:01:37.954Z,22.95
2022-10-24T18:04:05.047Z,23.00
2022-10-24T18:06:32.225Z,22.85
2022-10-24T18:08:59.058Z,23.88
2022-10-24T18:11:26.365Z,23.20
2022-10-24T18:13:53.263Z,23.90
2022-10-24T18:16:20.716Z,23.55
2022-10-24T18:18:48.105Z,22.52
2022-10-24T18:21:22.545Z,23.70
2022-10-24T18:23:49.396Z,21.95
2022-10-24T18:26:19.912Z,22.75
2022-10-24T18:28:49.736Z,23.60
2022-10-24T18:31:25.968Z,25.55
2022-10-24T18:33:53.532Z,26.27
2022-10-24T18:36:25.203Z,26.92
2022-10-24T18:38:55.585Z,28.55
2022-10-24T18:41:30.852Z,27.73
2022-10-24T18:44:24.497Z,28.17
2022-10-24T18:46:52.898Z,26.50
2022-10-24T18:49:20.455Z,26.40
2022-10-24T18:52:10.446Z,28.45
2022-10-24T18:55:12.146Z,27.63
2022-10-24T18:57:39.057Z,26.48
2022-10-24T19:00:07.510Z,28.13
2022-10-24T19:02:57.777Z,25.83
2022-10-24T19:05:42.756Z,25.67
2022-10-24T19:08:16.314Z,25.77
2022-10-24T19:10:45.682Z,24.60
2022-10-24T19:13:13.519Z,24.33
2022-10-24T19:15:53.747Z,25.45
2022-10-24T19:18:20.826Z,24.33
2022-10-24T19:20:47.668Z,23.58
2022-10-24T19:23:15.873Z,24.38
2022-10-24T19:25:42.961Z,23.38
2022-10-24T19:28:13.190Z,23.05
2022-10-24T19:30:42.341Z,23.42
2022-10-24T19:33:09.669Z,23.05
2022-10-24T19:35:46.756Z,23.85
2022-10-24T19:38:18.117Z,23.05
2022-10-24T19:40:46.473Z,23.60
2022-10-24T19:43:14.026Z,22.65
2022-10-24T19:45:49.882Z,23.23
2022-10-24T19:48:23.355Z,23.30
2022-10-24T19:50:51.486Z,23.30
2022-10-24T19:53:18.513Z,24.17
2022-10-24T19:55:45.476Z,21.75
2022-10-24T19:58:18.751Z,22.30
2022-10-24T20:00:46.599Z,22.55
2022-10-24T20:03:15.023Z,23.50
2022-10-24T20:05:42.464Z,20.67
2022-10-24T20:08:09.357Z,21.48
2022-10-24T20:10:36.189Z,21.10
2022-10-24T20:13:03.016Z,23.02
2022-10-24T20:15:29.878Z,22.70
2022-10-24T20:17:56.731Z,22.17
2022-10-24T20:20:25.006Z,21.67
2022-10-24T20:22:51.833Z,20.95
2022-10-24T20:25:18.705Z,21.27
2022-10-24T20:27:45.826Z,20.70
2022-10-24T20:30:13.089Z,20.17
2022-10-24T20:32:39.949Z,19.60
2022-10-24T20:35:07.491Z,18.65
2022-10-24T20:37:34.349Z,18.60
2022-10-24T20:40:01.196Z,17.15
2022-10-24T20:42:28.017Z,17.48
2022-10-24T20:44:54.966Z,16.85
2022-10-24T20:47:21.777Z,17.05
2022-10-24T20:49:48.600Z,17.40
2022-10-24T20:52:15.449Z,17.60
2022-10-24T20:54:42.356Z,17.33
2022-10-24T20:57:09.181Z,16.83
2022-10-24T20:59:36.012Z,15.48
2022-10-24T21:02:02.989Z,14.48
2022-10-24T21:04:29.923Z,13.52
2022-10-24T21:06:56.747Z,15.07
2022-10-24T21:09:23.558Z,15.25
2022-10-24T21:11:50.428Z,15.38
2022-10-24T21:14:20.510Z,15.90
2022-10-24T21:16:48.039Z,15.57
2022-10-24T21:19:14.874Z,14.18
2022-10-24T21:21:41.734Z,14.60
2022-10-24T21:24:14.161Z,14.60
2022-10-24T21:26:41.317Z,15.60
2022-10-24T21:29:27.929Z,14.77
2022-10-24T21:31:55.866Z,14.80
2022-10-24T21:34:23.114Z,14.65
2022-10-24T21:36:49.972Z,15.02
2022-10-24T21:39:17.582Z,15.05
2022-10-24T21:41:44.839Z,14.30
2022-10-24T21:44:11.896Z,15.10
2022-10-24T21:46:38.918Z,15.35
2022-10-24T21:49:05.754Z,16.42
2022-10-24T21:51:36.243Z,16.13
2022-10-24T21:54:08.013Z,14.27
2022-10-24T21:56:39.462Z,11.52
2022-10-24T21:59:11.842Z,12.60
2022-10-24T22:01:39.403Z,12.20
2022-10-24T22:04:07.743Z,12.93
2022-10-24T22:06:35.816Z,12.27
2022-10-24T22:09:05.133Z,11.18
2022-10-24T22:11:34.670Z,10.18
2022-10-24T22:14:03.275Z,10.20
2022-10-24T22:16:31.339Z,9.10
2022-10-24T22:19:01.839Z,9.07
2022-10-24T22:21:42.525Z,9.10
2022-10-24T22:24:16.698Z,9.57
2022-10-24T22:26:44.351Z,10.23
2022-10-24T22:29:14.495Z,11.27
2022-10-24T22:31:42.205Z,9.18
2022-10-24T22:34:15.298Z,8.57
2022-10-24T22:37:12.805Z,7.75
2022-10-24T22:39:40.792Z,7.95
2022-10-24T22:42:13.472Z,8.07
2022-10-24T22:44:43.945Z,7.60
2022-10-24T22:47:58.919Z,7.93
2022-10-24T22:50:49.118Z,7.25
2022-10-24T22:53:20.762Z,7.38
2022-10-24T22:56:15.031Z,7.38
2022-10-24T22:58:44.506Z,7.15
2022-10-24T23:01:34.177Z,6.75
2022-10-24T23:04:23.828Z,7.72
2022-10-24T23:06:57.171Z,7.20
2022-10-24T23:09:24.170Z,7.70
2022-10-24T23:11:51.345Z,7.22
2022-10-24T23:14:18.476Z,7.40
2022-10-24T23:16:55.559Z,7.40
2022-10-24T23:19:26.686Z,8.02
2022-10-24T23:21:59.305Z,8.32
2022-10-24T23:24:26.670Z,8.48
2022-10-24T23:27:11.961Z,7.80
2022-10-24T23:29:42.403Z,7.85
2022-10-24T23:32:31.348Z,7.63
2022-10-24T23:34:59.885Z,7.30
2022-10-24T23:37:42.796Z,7.03
2022-10-24T23:40:29.983Z,6.43
2022-10-24T23:42:57.574Z,6.63
2022-10-24T23:45:28.648Z,6.38
2022-10-24T23:48:21.362Z,6.47
2022-10-24T23:51:08.622Z,6.30
2022-10-24T23:53:53.221Z,6.57
2022-10-24T23:56:24.372Z,6.43
2022-10-24T23:58:52.025Z,6.38
